Time;durP1;ratioP1;P1;durP2;ratioP2;P2;SDS_P1;SDS_P2;PMS_P1;PMS_P2;Temp;Humidity;BMP_temperature;BMP_pressure;BME280_temperature;BME280_humidity;BME280_pressure;Samples;Min_cycle;Max_cycle;Signal;HPM_P1;HPM_P2
2022/11/23 00:02:13;;;;;;;9.45;6.33;;;5.70;99.90;;;;;;1884728;75;21142;-93
2022/11/23 00:05:09;;;;;;;9.33;6.30;;;5.60;99.90;;;;;;1900642;75;21110;-93
2022/11/23 00:08:00;;;;;;;10.72;6.72;;;5.60;99.90;;;;;;1885063;76;21102;-93
2022/11/23 00:10:52;;;;;;;10.43;6.70;;;5.60;99.90;;;;;;1884265;76;21176;-95
2022/11/23 00:13:45;;;;;;;10.20;7.08;;;5.50;99.90;;;;;;1884401;76;21623;-95
2022/11/23 00:16:37;;;;;;;10.55;6.50;;;5.50;99.90;;;;;;1873158;76;21140;-93
2022/11/23 00:19:29;;;;;;;10.98;6.40;;;5.60;99.90;;;;;;1872456;76;21095;-93
2022/11/23 00:22:22;;;;;;;10.18;6.45;;;5.60;99.90;;;;;;1871916;77;21187;-93
2022/11/23 00:25:14;;;;;;;11.10;6.33;;;5.60;99.90;;;;;;1871830;77;21310;-93
2022/11/23 00:28:08;;;;;;;9.10;6.50;;;5.60;99.90;;;;;;1883893;76;21082;-93
2022/11/23 00:31:01;;;;;;;11.03;6.67;;;5.60;99.90;;;;;;1903190;75;21093;-93
2022/11/23 00:33:54;;;;;;;9.63;5.60;;;5.50;99.90;;;;;;1917696;75;21091;-93
2022/11/23 00:36:45;;;;;;;8.58;5.83;;;5.60;99.90;;;;;;1904497;75;21136;-92
2022/11/23 00:39:37;;;;;;;8.93;5.90;;;5.50;99.90;;;;;;1883378;75;21125;-93
2022/11/23 00:42:28;;;;;;;7.47;5.37;;;5.50;99.90;;;;;;1871371;77;21513;-94
2022/11/23 00:45:23;;;;;;;8.25;5.83;;;5.40;99.90;;;;;;1839817;77;21156;-94
2022/11/23 00:48:16;;;;;;;8.15;5.78;;;5.30;99.90;;;;;;1860239;77;21105;-92
2022/11/23 00:57:27;;;;;;;7.87;4.87;;;5.10;99.90;;;;;;2061099;69;22091;-91
2022/11/23 01:00:21;;;;;;;8.50;5.17;;;5.10;99.90;;;;;;1994608;70;21140;-92
2022/11/23 01:03:12;;;;;;;8.05;5.08;;;5.10;99.90;;;;;;1981115;72;21157;-92
2022/11/23 01:06:09;;;;;;;8.25;5.37;;;5.10;99.90;;;;;;1985005;72;21122;-93
2022/11/23 01:09:02;;;;;;;;;;;5.10;99.90;;;;;;1983537;72;21092;-92
2022/11/23 01:11:54;;;;;;;7.12;4.45;;;5.00;99.90;;;;;;2004461;71;20407;-91
2022/11/23 01:14:46;;;;;;;5.35;3.77;;;5.10;99.90;;;;;;1983672;72;21649;-92
2022/11/23 01:17:38;;;;;;;7.00;3.83;;;5.30;99.90;;;;;;1986755;72;21502;-92
2022/11/23 01:20:31;;;;;;;5.47;4.08;;;5.30;99.90;;;;;;1986293;72;21097;-93
2022/11/23 01:23:24;;;;;;;5.25;4.03;;;5.20;99.90;;;;;;1985667;72;21066;-90
2022/11/23 01:26:16;;;;;;;5.62;4.12;;;5.20;99.90;;;;;;1987301;72;21094;-91
2022/11/23 01:29:08;;;;;;;7.95;4.72;;;5.20;99.90;;;;;;1986486;72;21035;-92
2022/11/23 01:32:00;;;;;;;7.75;5.20;;;5.20;99.90;;;;;;1981034;72;21074;-91
2022/11/23 01:34:52;;;;;;;8.98;4.80;;;5.20;99.90;;;;;;2006017;71;21119;-92
2022/11/23 01:37:44;;;;;;;7.27;5.00;;;5.20;99.90;;;;;;1980685;72;21097;-92
2022/11/23 01:40:42;;;;;;;10.72;5.83;;;5.30;99.90;;;;;;1980725;72;21102;-92
2022/11/23 01:43:34;;;;;;;7.92;5.12;;;5.30;99.90;;;;;;1983059;72;21044;-92
2022/11/23 01:46:25;;;;;;;8.95;5.33;;;5.30;99.90;;;;;;1982811;72;21082;-91
2022/11/23 01:49:18;;;;;;;7.97;5.25;;;5.40;99.90;;;;;;1982417;72;21503;-94
2022/11/23 01:52:12;;;;;;;7.80;5.35;;;5.40;99.90;;;;;;1988434;72;21115;-91
2022/11/23 01:55:04;;;;;;;6.80;4.70;;;5.40;99.90;;;;;;1987199;72;21138;-92
2022/11/23 01:57:58;;;;;;;9.93;5.00;;;5.40;99.90;;;;;;1996540;72;21141;-92
2022/11/23 02:00:50;;;;;;;6.55;4.05;;;5.50;99.90;;;;;;1998153;72;21074;-93
2022/11/23 02:03:42;;;;;;;8.60;4.60;;;5.50;99.90;;;;;;1998485;72;21115;-92
2022/11/23 02:06:35;;;;;;;6.08;4.30;;;5.60;99.90;;;;;;2016382;70;21179;-91
2022/11/23 02:09:28;;;;;;;6.10;3.70;;;5.60;99.90;;;;;;1997567;72;21164;-91
2022/11/23 02:12:21;;;;;;;5.90;3.60;;;5.60;99.90;;;;;;2029287;70;21114;-92
2022/11/23 02:15:13;;;;;;;4.70;3.05;;;5.60;99.90;;;;;;2034190;70;21035;-91
2022/11/23 02:18:09;;;;;;;6.75;3.62;;;5.50;99.90;;;;;;1997379;72;21159;-93
2022/11/23 02:21:03;;;;;;;6.20;3.52;;;5.60;99.90;;;;;;1997927;72;21127;-92
2022/11/23 02:23:59;;;;;;;5.50;3.37;;;5.60;99.90;;;;;;1997688;72;21096;-94
2022/11/23 02:26:51;;;;;;;6.70;4.40;;;5.60;99.90;;;;;;1998157;72;21070;-93
2022/11/23 02:29:43;;;;;;;7.05;4.67;;;5.60;99.90;;;;;;1997648;72;21152;-93
2022/11/23 02:32:35;;;;;;;8.73;4.90;;;5.60;99.90;;;;;;2009154;71;21697;-90
2022/11/23 02:35:27;;;;;;;8.98;5.20;;;5.60;99.90;;;;;;1997150;72;21090;-92
2022/11/23 02:38:20;;;;;;;7.78;5.00;;;5.50;99.90;;;;;;1997577;72;21101;-91
2022/11/23 02:41:12;;;;;;;10.88;5.40;;;5.50;99.90;;;;;;1997535;72;21406;-92
2022/11/23 02:44:06;;;;;;;7.17;5.15;;;5.50;99.90;;;;;;1997810;72;21027;-92
2022/11/23 02:46:59;;;;;;;8.20;4.92;;;5.40;99.90;;;;;;2013968;70;21104;-91
2022/11/23 02:49:51;;;;;;;6.10;4.60;;;5.40;99.90;;;;;;2023412;70;21098;-91
2022/11/23 02:52:43;;;;;;;9.70;4.60;;;5.30;99.90;;;;;;2022491;70;21074;-91
2022/11/23 02:55:37;;;;;;;7.08;4.35;;;5.30;99.90;;;;;;1997603;72;21178;-91
2022/11/23 02:58:28;;;;;;;6.60;4.80;;;5.30;99.90;;;;;;2004792;71;21086;-91
2022/11/23 03:01:20;;;;;;;6.42;4.50;;;5.20;99.90;;;;;;2002052;71;21084;-92
2022/11/23 03:04:11;;;;;;;6.72;4.03;;;5.20;99.90;;;;;;1972665;73;21102;-92
2022/11/23 03:07:03;;;;;;;6.72;4.15;;;5.20;99.90;;;;;;1977428;72;21036;-91
2022/11/23 03:09:55;;;;;;;5.15;3.83;;;5.10;99.90;;;;;;1977647;72;21098;-91
2022/11/23 03:12:48;;;;;;;5.87;4.30;;;5.10;99.90;;;;;;1979438;72;21155;-91
2022/11/23 03:15:39;;;;;;;6.50;3.62;;;5.00;99.90;;;;;;1973790;72;21163;-91
2022/11/23 03:18:33;;;;;;;5.92;3.80;;;5.00;99.90;;;;;;1999375;71;21139;-90
2022/11/23 03:21:25;;;;;;;6.95;4.30;;;5.00;99.90;;;;;;1977125;72;21144;-93
2022/11/23 03:24:17;;;;;;;7.47;4.60;;;4.90;99.90;;;;;;1975069;72;21029;-93
2022/11/23 03:27:11;;;;;;;9.25;4.55;;;4.90;99.90;;;;;;1973155;73;21134;-92
2022/11/23 03:30:03;;;;;;;6.90;4.45;;;4.80;99.90;;;;;;1977130;72;21130;-89
2022/11/23 03:32:56;;;;;;;8.18;5.10;;;4.90;99.90;;;;;;1973259;73;21136;-90
2022/11/23 03:35:48;;;;;;;10.93;4.55;;;4.90;99.90;;;;;;1976427;72;21095;-90
2022/11/23 03:38:41;;;;;;;9.25;5.47;;;4.90;99.90;;;;;;2008560;71;21075;-90
2022/11/23 03:41:34;;;;;;;8.03;5.03;;;5.10;99.90;;;;;;2008699;71;21098;-92
2022/11/23 03:44:26;;;;;;;7.97;5.20;;;5.10;99.90;;;;;;2008965;71;21733;-91
2022/11/23 03:47:17;;;;;;;9.35;5.00;;;5.10;99.90;;;;;;1988855;71;21158;-90
2022/11/23 03:50:10;;;;;;;7.60;4.92;;;5.10;99.90;;;;;;1972632;72;21045;-92
2022/11/23 03:53:02;;;;;;;7.53;4.42;;;5.00;99.90;;;;;;1972631;72;21088;-91
2022/11/23 03:55:56;;;;;;;8.20;4.92;;;4.90;99.90;;;;;;1972688;72;21144;-90
2022/11/23 03:58:48;;;;;;;6.95;4.40;;;5.00;99.90;;;;;;1968955;72;21180;-90
2022/11/23 04:01:41;;;;;;;8.85;4.97;;;5.10;99.90;;;;;;1959792;73;21117;-90
2022/11/23 04:04:34;;;;;;;8.45;4.40;;;5.10;99.90;;;;;;1965457;72;21090;-90
2022/11/23 04:07:37;;;;;;;7.53;4.30;;;5.10;99.90;;;;;;1911546;73;21177;-91
2022/11/23 04:10:36;;;;;;;8.65;4.87;;;5.10;99.90;;;;;;1961703;72;21105;-91
2022/11/23 04:13:23;;;;;;;8.35;5.12;;;5.00;99.90;;;;;;1976559;72;21035;-91
2022/11/23 04:16:15;;;;;;;6.58;4.47;;;5.00;99.90;;;;;;1966944;72;21121;-90
2022/11/23 04:19:09;;;;;;;7.55;4.85;;;5.00;99.90;;;;;;1965383;72;21464;-90
2022/11/23 04:22:02;;;;;;;8.75;4.58;;;5.00;99.90;;;;;;1976190;72;21133;-90
2022/11/23 04:24:55;;;;;;;6.75;4.03;;;4.90;99.90;;;;;;1987533;72;21139;-90
2022/11/23 04:27:47;;;;;;;7.40;4.00;;;4.90;99.90;;;;;;1960741;73;21091;-90
2022/11/23 04:30:39;;;;;;;8.30;4.45;;;4.90;99.90;;;;;;1960198;73;21116;-89
2022/11/23 04:33:33;;;;;;;5.95;3.90;;;4.90;99.90;;;;;;1983933;72;21063;-91
2022/11/23 04:36:27;;;;;;;5.33;3.83;;;4.90;99.90;;;;;;1970744;72;21152;-90
2022/11/23 04:39:19;;;;;;;7.53;4.42;;;4.80;99.90;;;;;;1959987;72;21082;-90
2022/11/23 04:42:13;;;;;;;5.90;3.85;;;4.80;99.90;;;;;;1960231;73;21180;-90
2022/11/23 04:45:07;;;;;;;6.55;4.12;;;4.80;99.90;;;;;;1971326;72;21104;-90
2022/11/23 04:47:59;;;;;;;6.95;3.98;;;4.80;99.90;;;;;;1970627;72;21100;-90
2022/11/23 04:50:51;;;;;;;5.90;4.10;;;4.80;99.90;;;;;;1971022;72;21082;-90
2022/11/23 04:53:46;;;;;;;7.55;4.05;;;4.80;99.90;;;;;;1963748;72;21076;-90
2022/11/23 04:56:38;;;;;;;4.42;3.50;;;4.80;99.90;;;;;;1973814;72;21152;-91
2022/11/23 04:59:29;;;;;;;6.17;4.20;;;4.90;99.90;;;;;;1946399;73;21541;-90
2022/11/23 05:02:21;;;;;;;8.53;4.22;;;4.80;99.90;;;;;;1966204;72;21121;-90
2022/11/23 05:05:15;;;;;;;6.05;3.72;;;4.90;99.90;;;;;;1977097;72;21043;-90
2022/11/23 05:08:07;;;;;;;5.90;3.90;;;4.90;99.90;;;;;;1972770;71;21095;-90
2022/11/23 05:11:03;;;;;;;6.15;4.03;;;4.80;99.90;;;;;;1966784;73;21117;-90
2022/11/23 05:13:55;;;;;;;6.80;3.85;;;4.90;99.90;;;;;;1983756;71;21075;-89
2022/11/23 05:16:49;;;;;;;5.15;3.75;;;4.90;99.90;;;;;;2008533;71;21044;-90
2022/11/23 05:19:40;;;;;;;5.55;3.87;;;4.90;99.90;;;;;;1973109;73;21092;-90
2022/11/23 05:22:31;;;;;;;3.85;3.22;;;4.90;99.90;;;;;;1975786;72;21106;-89
2022/11/23 05:25:23;;;;;;;5.05;3.37;;;5.00;99.90;;;;;;1987903;71;21144;-90
2022/11/23 05:28:18;;;;;;;5.58;3.60;;;5.00;99.90;;;;;;1984667;71;21107;-88
2022/11/23 05:31:13;;;;;;;7.20;4.00;;;5.00;99.90;;;;;;1986226;71;21160;-89
2022/11/23 05:34:05;;;;;;;5.50;3.67;;;5.10;99.90;;;;;;1975055;72;21079;-90
2022/11/23 05:36:58;;;;;;;5.60;3.75;;;5.10;99.90;;;;;;1974456;72;21083;-89
2022/11/23 05:39:50;;;;;;;7.03;4.30;;;5.20;99.90;;;;;;1973378;72;21106;-90
2022/11/23 05:42:45;;;;;;;6.15;3.90;;;5.10;99.90;;;;;;1971999;72;21222;-90
2022/11/23 05:45:41;;;;;;;5.72;4.08;;;5.10;99.90;;;;;;1976900;72;21171;-90
2022/11/23 05:48:34;;;;;;;5.37;3.55;;;5.10;99.90;;;;;;1975316;72;21067;-90
2022/11/23 05:51:27;;;;;;;5.22;3.60;;;5.00;99.90;;;;;;1974457;72;21079;-90
2022/11/23 05:54:19;;;;;;;5.55;3.72;;;5.10;99.90;;;;;;1974855;71;21041;-90
2022/11/23 05:57:14;;;;;;;8.05;4.20;;;5.10;99.90;;;;;;1994988;71;21144;-89
2022/11/23 06:00:09;;;;;;;4.62;3.27;;;5.10;99.90;;;;;;1977448;72;21125;-89
2022/11/23 06:03:15;;;;;;;5.33;3.50;;;5.10;99.90;;;;;;1986310;72;21197;-88
2022/11/23 06:06:08;;;;;;;4.72;3.30;;;5.20;99.90;;;;;;1981801;72;21119;-90
2022/11/23 06:09:02;;;;;;;5.92;3.95;;;5.20;99.90;;;;;;1981595;72;21520;-90
2022/11/23 06:11:54;;;;;;;5.87;3.80;;;5.20;99.90;;;;;;2006056;71;21123;-90
2022/11/23 06:14:45;;;;;;;6.53;3.98;;;5.20;99.90;;;;;;1997922;71;21136;-89
2022/11/23 06:17:39;;;;;;;8.23;3.80;;;5.20;99.90;;;;;;1982283;72;21050;-89
2022/11/23 06:20:34;;;;;;;6.00;3.60;;;5.20;99.90;;;;;;1986023;72;21074;-89
2022/11/23 06:23:29;;;;;;;5.00;4.15;;;5.20;99.90;;;;;;1981455;72;21340;-88
2022/11/23 06:26:20;;;;;;;7.05;4.03;;;5.20;99.90;;;;;;1984042;72;21089;-89
2022/11/23 06:29:11;;;;;;;5.20;4.00;;;5.10;99.90;;;;;;1982394;72;21140;-89
2022/11/23 06:32:03;;;;;;;5.75;3.35;;;5.10;99.90;;;;;;1990833;71;21079;-89
2022/11/23 06:34:55;;;;;;;5.22;4.20;;;5.10;99.90;;;;;;2015962;71;21329;-90
2022/11/23 06:37:50;;;;;;;6.42;3.72;;;5.10;99.90;;;;;;1991591;71;21106;-90
2022/11/23 06:40:43;;;;;;;5.62;3.90;;;5.10;99.90;;;;;;1982648;72;21160;-90
2022/11/23 06:43:35;;;;;;;6.92;4.30;;;5.10;99.90;;;;;;1983711;72;21097;-90
2022/11/23 06:46:36;;;;;;;6.80;4.12;;;5.10;99.90;;;;;;2003755;71;21083;-89
2022/11/23 06:49:24;;;;;;;6.80;3.95;;;5.10;99.90;;;;;;1980055;72;21059;-89
2022/11/23 06:52:18;;;;;;;6.67;4.08;;;5.20;99.90;;;;;;1982003;72;21100;-91
2022/11/23 06:55:11;;;;;;;4.70;3.40;;;5.20;99.90;;;;;;1979229;72;21079;-76
2022/11/23 06:58:03;;;;;;;6.72;3.70;;;5.20;99.90;;;;;;1980077;71;21084;-75
2022/11/23 07:00:54;;;;;;;4.65;3.35;;;5.30;99.90;;;;;;1986453;71;21067;-87
2022/11/23 07:03:47;;;;;;;5.37;3.45;;;5.20;99.90;;;;;;1952438;72;21087;-84
2022/11/23 07:06:41;;;;;;;6.95;3.47;;;5.10;99.90;;;;;;1904812;74;21114;-84
2022/11/23 07:09:34;;;;;;;5.10;3.72;;;5.10;99.90;;;;;;1914550;74;21495;-86
2022/11/23 07:12:36;;;;;;;5.90;3.27;;;5.20;99.90;;;;;;1889055;74;21187;-85
2022/11/23 07:15:29;;;;;;;6.50;3.45;;;5.20;99.90;;;;;;1907723;74;21170;-85
2022/11/23 07:18:20;;;;;;;4.10;3.08;;;5.40;99.90;;;;;;1953565;72;21083;-84
2022/11/23 07:21:13;;;;;;;6.37;2.90;;;5.40;99.90;;;;;;2001281;71;21127;-85
2022/11/23 07:24:05;;;;;;;5.25;3.30;;;5.40;99.90;;;;;;1972845;72;21514;-82
2022/11/23 07:26:57;;;;;;;6.37;3.25;;;5.50;99.90;;;;;;1973124;72;21454;-87
2022/11/23 07:29:49;;;;;;;8.00;3.70;;;5.50;99.90;;;;;;1975523;71;21321;-88
2022/11/23 07:32:41;;;;;;;5.95;3.12;;;5.60;99.90;;;;;;1986959;71;21079;-88
2022/11/23 07:35:33;;;;;;;7.37;3.50;;;5.70;99.90;;;;;;1986366;71;21144;-88
2022/11/23 07:38:25;;;;;;;7.33;3.60;;;5.70;99.90;;;;;;1999774;71;21035;-87
2022/11/23 07:41:17;;;;;;;6.97;3.77;;;5.70;99.90;;;;;;1941720;73;21135;-87
2022/11/23 07:44:10;;;;;;;6.87;3.95;;;5.80;99.90;;;;;;1941289;73;21120;-87
2022/11/23 07:47:01;;;;;;;8.25;3.40;;;5.80;99.90;;;;;;1974395;72;21212;-87
2022/11/23 07:49:53;;;;;;;5.58;3.90;;;5.80;99.90;;;;;;1974774;72;21144;-87
2022/11/23 07:52:44;;;;;;;5.20;3.05;;;5.70;99.90;;;;;;1974379;71;21167;-88
2022/11/23 07:55:36;;;;;;;7.70;4.15;;;5.70;99.90;;;;;;1977862;72;21471;-88
2022/11/23 07:58:31;;;;;;;5.33;3.33;;;5.70;99.90;;;;;;1979687;72;21101;-87
2022/11/23 08:01:22;;;;;;;6.92;4.08;;;5.80;99.90;;;;;;1974617;71;21098;-87
2022/11/23 08:04:13;;;;;;;6.35;3.83;;;5.70;99.90;;;;;;1975453;72;21083;-89
2022/11/23 08:07:05;;;;;;;7.40;3.80;;;5.70;99.90;;;;;;1974540;72;21096;-89
2022/11/23 08:09:56;;;;;;;8.58;3.90;;;5.70;99.90;;;;;;1975491;72;21087;-88
2022/11/23 08:12:48;;;;;;;5.03;3.72;;;5.70;99.90;;;;;;1989947;71;21068;-88
2022/11/23 08:15:40;;;;;;;5.50;4.00;;;5.60;99.90;;;;;;1946784;72;21088;-88
2022/11/23 08:18:32;;;;;;;5.97;3.92;;;5.60;99.90;;;;;;1972616;71;21191;-88
2022/11/23 08:21:23;;;;;;;6.00;4.33;;;5.60;99.90;;;;;;1958225;72;21106;-88
2022/11/23 08:24:14;;;;;;;7.37;4.12;;;5.60;99.90;;;;;;1976391;72;21063;-88
2022/11/23 08:27:06;;;;;;;7.72;3.87;;;5.70;99.90;;;;;;1981648;71;21083;-88
2022/11/23 08:29:57;;;;;;;8.55;4.00;;;5.70;99.90;;;;;;1982304;71;21374;-88
2022/11/23 08:32:49;;;;;;;5.37;3.92;;;5.70;99.90;;;;;;1979411;71;21144;-88
2022/11/23 08:35:41;;;;;;;7.28;4.10;;;5.80;99.90;;;;;;1975484;72;21079;-89
2022/11/23 08:38:33;;;;;;;5.85;4.00;;;5.90;99.90;;;;;;1972428;72;21151;-87
2022/11/23 08:41:26;;;;;;;8.40;4.28;;;5.90;99.90;;;;;;1976556;72;21158;-88
2022/11/23 08:44:17;;;;;;;8.38;5.12;;;6.00;99.90;;;;;;1942174;73;21091;-88
2022/11/23 08:47:10;;;;;;;6.75;4.35;;;6.00;99.90;;;;;;1975950;72;21035;-87
2022/11/23 08:50:01;;;;;;;8.80;4.35;;;6.10;99.90;;;;;;1971940;73;21149;-88
2022/11/23 08:52:57;;;;;;;6.22;3.40;;;6.10;99.90;;;;;;1978011;71;21079;-87
2022/11/23 08:55:48;;;;;;;7.05;4.65;;;6.30;99.90;;;;;;2006721;71;21161;-87
2022/11/23 08:58:40;;;;;;;7.90;4.12;;;6.30;99.90;;;;;;1942092;73;21089;-88
2022/11/23 09:01:31;;;;;;;5.67;3.40;;;6.40;99.90;;;;;;1987021;71;21071;-87
2022/11/23 09:04:23;;;;;;;4.87;3.30;;;6.50;99.90;;;;;;1976958;71;21168;-88
2022/11/23 09:07:14;;;;;;;6.95;3.42;;;6.40;99.90;;;;;;1973551;72;21090;-88
2022/11/23 09:10:41;;;;;;;6.92;3.33;;;6.40;99.90;;;;;;1962735;72;21204;-87
2022/11/23 09:13:38;;;;;;;4.67;2.98;;;6.50;99.90;;;;;;1975656;72;21083;-87
2022/11/23 09:16:30;;;;;;;4.85;2.95;;;6.50;99.90;;;;;;1992525;71;21035;-87
2022/11/23 09:19:23;;;;;;;7.22;2.80;;;6.60;99.90;;;;;;1992781;71;21116;-87
2022/11/23 09:22:15;;;;;;;8.53;3.77;;;6.60;99.90;;;;;;1974113;72;21039;-87
2022/11/23 09:25:09;;;;;;;9.00;3.72;;;6.60;99.90;;;;;;1974201;72;21175;-87
2022/11/23 09:28:03;;;;;;;8.53;3.50;;;6.60;99.90;;;;;;1976983;72;21036;-88
2022/11/23 09:30:54;;;;;;;6.80;3.55;;;6.60;99.90;;;;;;1975688;72;21040;-87
2022/11/23 09:33:46;;;;;;;7.55;3.37;;;6.70;99.90;;;;;;1984488;71;21051;-87
2022/11/23 09:36:37;;;;;;;6.87;3.60;;;6.70;99.90;;;;;;2001494;71;21090;-87
2022/11/23 09:39:29;;;;;;;5.90;3.50;;;6.70;99.90;;;;;;1976573;72;22153;-87
2022/11/23 09:42:36;;;;;;;6.20;3.00;;;6.80;99.90;;;;;;1981026;72;21144;-90
2022/11/23 09:45:33;;;;;;;7.87;3.55;;;6.80;99.90;;;;;;1973653;72;21091;-87
2022/11/23 09:52:00;;;;;;;6.92;3.42;;;6.80;99.90;;;;;;2084307;68;22142;-88
2022/11/23 09:54:53;;;;;;;5.92;3.12;;;6.80;99.90;;;;;;2010042;70;21144;-88
2022/11/23 09:57:47;;;;;;;9.63;4.10;;;6.90;99.90;;;;;;2010563;70;21095;-88
2022/11/23 10:00:41;;;;;;;6.42;3.20;;;7.00;99.90;;;;;;2010379;70;21078;-87
2022/11/23 10:03:36;;;;;;;4.45;3.00;;;7.10;99.90;;;;;;2035163;70;21085;-88
2022/11/23 10:06:30;;;;;;;6.10;2.80;;;7.20;99.90;;;;;;2015465;70;21085;-88
2022/11/23 10:09:27;;;;;;;6.65;3.45;;;7.20;99.90;;;;;;1998138;70;21094;-88
2022/11/23 10:12:25;;;;;;;12.28;3.92;;;7.20;99.90;;;;;;2022752;70;21031;-88
2022/11/23 10:15:21;;;;;;;12.03;3.77;;;7.20;99.90;;;;;;1981159;72;21101;-87
2022/11/23 10:18:24;;;;;;;6.90;3.10;;;7.10;99.90;;;;;;2012376;70;21138;-88
2022/11/23 10:21:21;;;;;;;8.60;3.15;;;7.10;99.90;;;;;;2017892;70;21051;-89
2022/11/23 10:24:20;;;;;;;6.60;3.30;;;7.10;99.90;;;;;;2012849;70;21098;-88
2022/11/23 10:27:16;;;;;;;5.62;2.60;;;7.20;99.90;;;;;;2022919;70;21693;-88
2022/11/23 10:30:14;;;;;;;5.70;2.98;;;7.10;99.90;;;;;;2004247;70;21091;-89
2022/11/23 10:33:12;;;;;;;8.25;3.52;;;7.20;99.90;;;;;;2010004;70;21755;-88
2022/11/23 10:36:04;;;;;;;3.83;2.80;;;7.20;99.90;;;;;;2012899;70;21136;-87
2022/11/23 10:38:58;;;;;;;7.22;3.02;;;7.20;99.90;;;;;;1954957;73;21085;-88
2022/11/23 10:41:50;;;;;;;8.80;3.70;;;7.20;99.90;;;;;;2009656;70;21079;-90
2022/11/23 10:44:43;;;;;;;4.97;3.20;;;7.30;99.90;;;;;;2010137;70;21127;-88
2022/11/23 10:47:44;;;;;;;7.35;3.62;;;7.40;99.90;;;;;;2010102;70;21031;-88
2022/11/23 10:50:39;;;;;;;7.72;4.15;;;7.30;99.90;;;;;;2013410;70;21144;-90
2022/11/23 10:53:32;;;;;;;7.08;4.35;;;7.40;99.90;;;;;;2015216;70;21062;-87
2022/11/23 10:56:24;;;;;;;9.98;4.97;;;7.40;99.90;;;;;;2023242;70;21027;-88
2022/11/23 10:59:31;;;;;;;5.83;3.67;;;7.50;99.90;;;;;;2023363;70;21062;-88
2022/11/23 11:02:23;;;;;;;9.18;4.37;;;7.60;99.90;;;;;;1967610;72;21168;-88
2022/11/23 11:05:24;;;;;;;7.12;4.25;;;7.60;99.90;;;;;;1975065;72;21140;-87
2022/11/23 11:08:19;;;;;;;8.23;4.55;;;7.70;99.90;;;;;;2004357;71;21104;-87
2022/11/23 11:11:13;;;;;;;12.70;5.83;;;7.80;99.90;;;;;;1983723;72;21100;-89
2022/11/23 11:14:08;;;;;;;10.82;5.78;;;7.90;99.90;;;;;;2008327;71;21137;-88
2022/11/23 11:16:59;;;;;;;12.23;5.50;;;7.90;99.90;;;;;;1983902;71;21116;-88
2022/11/23 11:19:51;;;;;;;10.63;5.58;;;7.90;99.90;;;;;;2006232;71;21059;-88
2022/11/23 11:22:43;;;;;;;9.38;4.92;;;8.00;99.90;;;;;;2003792;71;21102;-88
2022/11/23 11:25:38;;;;;;;6.42;4.20;;;8.00;99.90;;;;;;2008275;71;21074;-88
2022/11/23 11:28:33;;;;;;;9.48;4.30;;;8.10;99.90;;;;;;1965634;72;21120;-88
2022/11/23 11:31:46;;;;;;;9.90;4.10;;;8.10;99.90;;;;;;2013440;71;21058;-87
2022/11/23 11:34:41;;;;;;;9.35;4.47;;;8.10;99.90;;;;;;1998867;71;21163;-87
2022/11/23 11:37:37;;;;;;;8.28;3.87;;;8.10;99.90;;;;;;2003479;71;21078;-87
2022/11/23 11:40:31;;;;;;;8.28;4.37;;;8.10;99.90;;;;;;1959025;72;21143;-88
2022/11/23 11:43:26;;;;;;;8.85;5.20;;;8.10;99.90;;;;;;2014899;70;21132;-86
2022/11/23 11:46:22;;;;;;;6.47;4.05;;;8.00;99.90;;;;;;2018650;71;21123;-88
2022/11/23 11:52:31;;;;;;;10.48;4.25;;;8.00;99.90;;;;;;2075738;68;22165;-89
2022/11/23 11:55:26;;;;;;;8.20;4.80;;;8.00;99.90;;;;;;1998289;72;21214;-88
2022/11/23 11:58:20;;;;;;;9.30;4.97;;;8.00;99.90;;;;;;2013386;70;21128;-88
2022/11/23 12:01:14;;;;;;;8.48;4.78;;;8.10;99.90;;;;;;2000373;70;21724;-86
2022/11/23 12:04:10;;;;;;;12.30;6.35;;;8.20;99.90;;;;;;2022719;70;21035;-88
2022/11/23 12:09:46;;;;;;;10.10;5.30;;;8.20;99.90;;;;;;1957620;72;22199;-88
2022/11/23 12:12:38;;;;;;;9.05;4.70;;;8.20;99.90;;;;;;1907733;75;21117;-87
2022/11/23 12:15:32;;;;;;;9.08;5.22;;;8.20;99.90;;;;;;1887893;75;21195;-88
2022/11/23 12:22:03;;;;;;;10.25;5.03;;;8.20;99.90;;;;;;1945605;72;22186;-89
2022/11/23 12:25:09;;;;;;;10.38;5.08;;;8.20;99.90;;;;;;1893917;75;21095;-88
2022/11/23 12:28:06;;;;;;;11.05;5.30;;;8.20;99.90;;;;;;1890818;75;21103;-87
2022/11/23 12:31:04;;;;;;;10.58;5.15;;;8.20;99.90;;;;;;1887666;75;21166;-88
2022/11/23 12:34:15;;;;;;;9.03;4.60;;;8.30;99.90;;;;;;1905171;75;21061;-88
2022/11/23 12:37:27;;;;;;;8.40;4.45;;;8.20;99.90;;;;;;1883215;75;21138;-88
2022/11/23 12:43:32;;;;;;;5.85;3.80;;;8.30;99.90;;;;;;1952267;72;22241;-88
2022/11/23 12:46:29;;;;;;;10.30;4.92;;;8.20;99.90;;;;;;1928064;73;21105;-87
2022/11/23 12:49:28;;;;;;;9.50;4.78;;;8.20;99.90;;;;;;1926517;73;21075;-88
2022/11/23 12:52:29;;;;;;;8.55;5.37;;;8.20;99.90;;;;;;1862196;76;21151;-87
2022/11/23 12:55:24;;;;;;;7.95;5.22;;;8.20;99.90;;;;;;1925613;74;21104;-88
2022/11/23 12:58:20;;;;;;;7.70;4.95;;;8.20;99.90;;;;;;1917002;75;21110;-87
2022/11/23 13:07:40;;;;;;;8.75;4.70;;;8.30;99.90;;;;;;1951650;72;22305;-89
2022/11/23 13:10:43;;;;;;;8.75;4.72;;;8.30;99.90;;;;;;1917321;75;21475;-87
2022/11/23 13:14:03;;;;;;;10.88;4.50;;;8.30;99.90;;;;;;1917183;75;21151;-88
2022/11/23 13:17:16;;;;;;;8.23;4.15;;;8.30;99.90;;;;;;1939299;73;21108;-88
2022/11/23 13:20:18;;;;;;;5.25;3.58;;;8.20;99.90;;;;;;1917025;75;21085;-88
2022/11/23 13:23:10;;;;;;;6.92;4.05;;;8.20;99.90;;;;;;1917151;75;21102;-88
2022/11/23 13:29:26;;;;;;;5.45;3.37;;;8.20;99.90;;;;;;1941139;72;22278;-88
2022/11/23 13:32:45;;;;;;;6.53;3.72;;;8.10;99.90;;;;;;1872681;76;21181;-88
2022/11/23 13:38:45;;;;;;;7.40;4.00;;;8.20;99.90;;;;;;1957420;72;22246;-88
2022/11/23 13:42:01;;;;;;;6.12;3.75;;;8.20;99.90;;;;;;1883688;75;21095;-88
2022/11/23 13:48:18;;;;;;;9.65;4.12;;;8.20;99.90;;;;;;1944803;72;22234;-88
2022/11/23 13:51:11;;;;;;;7.87;4.83;;;8.10;99.90;;;;;;1917578;75;21063;-87
2022/11/23 13:54:06;;;;;;;5.55;4.25;;;8.10;99.90;;;;;;1916975;75;21261;-87
2022/11/23 13:57:02;;;;;;;7.55;4.30;;;8.20;99.90;;;;;;1917070;75;21606;-88
2022/11/23 13:59:53;;;;;;;10.60;5.20;;;8.30;99.90;;;;;;1931338;73;21107;-87
2022/11/23 14:02:45;;;;;;;7.85;4.58;;;8.30;99.90;;;;;;1919168;73;21179;-87
2022/11/23 14:05:59;;;;;;;9.03;4.65;;;8.20;99.90;;;;;;1940042;73;21121;-87
2022/11/23 14:11:38;;;;;;;8.83;4.70;;;8.30;99.90;;;;;;1957541;72;22630;-88
2022/11/23 14:14:33;;;;;;;8.43;4.60;;;8.30;99.90;;;;;;1897053;75;21107;-87
2022/11/23 14:17:33;;;;;;;11.05;5.10;;;8.30;99.90;;;;;;1894523;75;21051;-87
2022/11/23 14:20:29;;;;;;;;;;;8.30;99.90;;;;;;1892868;75;21173;-88
2022/11/23 14:23:35;;;;;;;10.00;3.70;;;8.40;99.90;;;;;;1885061;75;20185;-88
2022/11/23 14:26:40;;;;;;;6.42;4.33;;;8.50;99.90;;;;;;1895962;75;21047;-88
2022/11/23 14:29:44;;;;;;;8.60;4.55;;;8.50;99.90;;;;;;1903230;75;21180;-88
2022/11/23 14:32:48;;;;;;;7.85;4.80;;;8.50;99.90;;;;;;1920330;74;21102;-88
2022/11/23 14:35:44;;;;;;;6.40;4.65;;;8.50;99.90;;;;;;1903173;75;21102;-88
2022/11/23 14:39:24;;;;;;;7.80;4.40;;;8.50;99.90;;;;;;1906033;75;21055;-88
2022/11/23 14:42:19;;;;;;;8.50;4.60;;;8.50;99.90;;;;;;1877979;75;21113;-88
2022/11/23 14:45:15;;;;;;;7.40;4.33;;;8.30;99.90;;;;;;1895924;75;21056;-88
2022/11/23 14:48:24;;;;;;;6.40;4.17;;;8.40;99.90;;;;;;1887547;75;21102;-88
2022/11/23 14:51:18;;;;;;;8.45;4.47;;;8.30;99.90;;;;;;1906607;75;21172;-88
2022/11/23 14:54:11;;;;;;;8.28;4.50;;;8.30;99.90;;;;;;1906020;75;21090;-88
2022/11/23 14:57:07;;;;;;;8.53;4.62;;;8.30;99.90;;;;;;1903221;75;21328;-88
2022/11/23 15:00:01;;;;;;;7.62;4.47;;;8.30;99.90;;;;;;1898126;75;21135;-88
2022/11/23 15:02:57;;;;;;;8.58;4.72;;;8.20;99.90;;;;;;1884752;75;21138;-88
2022/11/23 15:05:52;;;;;;;8.78;5.03;;;8.30;99.90;;;;;;1907329;75;21117;-88
2022/11/23 15:11:36;;;;;;;10.48;4.60;;;8.10;99.90;;;;;;1956698;72;22183;-88
2022/11/23 15:14:28;;;;;;;6.62;4.08;;;8.10;99.90;;;;;;1929736;73;21107;-88
2022/11/23 15:17:21;;;;;;;7.40;4.33;;;8.10;99.90;;;;;;1943911;73;21176;-88
2022/11/23 15:20:13;;;;;;;8.05;4.28;;;8.10;99.90;;;;;;1919540;75;21503;-88
2022/11/23 15:23:06;;;;;;;7.33;5.22;;;8.10;99.90;;;;;;1938152;73;21535;-88
2022/11/23 15:26:00;;;;;;;6.75;4.08;;;8.10;99.90;;;;;;1931489;73;21171;-88
2022/11/23 15:28:54;;;;;;;9.03;4.87;;;8.10;99.90;;;;;;1940890;73;21625;-88
2022/11/23 15:31:45;;;;;;;11.75;5.85;;;8.10;99.90;;;;;;1916984;75;21184;-87
2022/11/23 15:34:38;;;;;;;8.13;4.80;;;8.10;99.90;;;;;;1917061;75;21164;-86
2022/11/23 15:37:32;;;;;;;7.58;5.17;;;8.10;99.90;;;;;;1916739;75;21213;-89
2022/11/23 15:40:25;;;;;;;7.83;4.78;;;8.10;99.90;;;;;;1916752;75;21235;-87
2022/11/23 15:43:18;;;;;;;6.53;4.47;;;8.10;99.90;;;;;;1916830;75;21235;-87
2022/11/23 15:46:13;;;;;;;6.55;3.80;;;8.10;99.90;;;;;;1917608;75;21095;-86
2022/11/23 16:03:54;;;;;;;9.10;4.50;;;8.00;99.90;;;;;;1916672;75;22172;-88
2022/11/23 16:06:49;;;;;;;7.10;4.55;;;7.80;99.90;;;;;;1874291;76;21115;-88
2022/11/23 16:09:43;;;;;;;7.25;4.17;;;7.80;99.90;;;;;;1871847;76;21140;-88
2022/11/23 16:15:40;;;;;;;6.15;3.45;;;7.80;99.90;;;;;;1951344;72;22149;-93
2022/11/23 16:18:31;;;;;;;4.80;3.17;;;7.60;99.90;;;;;;1886522;75;21059;-90
2022/11/23 16:21:24;;;;;;;6.12;3.90;;;7.50;99.90;;;;;;1884038;76;21188;-87
2022/11/23 16:24:20;;;;;;;6.42;3.85;;;7.30;99.90;;;;;;1897850;75;21168;-88